<?xml version="1.0" encoding="UTF-8" standalone="no" ?>
<gpx xmlns="http://www.topografix.com/GPX/1/1" xmlns:xsi="http://www.w3.org/2001/XMLSchema-instance" xsi:schemaLocation="http://www.topografix.com/GPX/1/1 http://www.topografix.com/GPX/1/1/gpx.xsd" version="1.1" creator="VisuGPX - https://www.visugpx.com">
  <metadata>
    <name>Etape 2 Férel - Les Moûtiers</name>
    <desc><![CDATA[Randonnée vélo Rennes - Hendaye, empruntant la Vélodyssée à partir de Saint-Brevin-Les-Pins. ]]></desc>
  </metadata>
  <trk>
    <name><![CDATA[Sequence 14]]></name>
    <trkseg>
      <trkpt lat="47.27934" lon="-2.20278">
        <ele>6</ele>
        <time>2016-07-22T06:49:16Z</time>
      </trkpt>
      <trkpt lat="47.27926" lon="-2.20275">
        <ele>8</ele>
        <time>2016-07-22T06:49:21Z</time>
      </trkpt>
      <trkpt lat="47.27908" lon="-2.20279">
        <ele>8</ele>
        <time>2016-07-22T06:49:27Z</time>
      </trkpt>
      <trkpt lat="47.27901" lon="-2.20281">
        <ele>8</ele>
        <time>2016-07-22T06:49:29Z</time>
      </trkpt>
      <trkpt lat="47.27881" lon="-2.20287">
        <ele>8</ele>
        <time>2016-07-22T06:49:34Z</time>
      </trkpt>
      <trkpt lat="47.2786" lon="-2.20294">
        <ele>7</ele>
        <time>2016-07-22T06:49:39Z</time>
      </trkpt>
      <trkpt lat="47.27829" lon="-2.20305">
        <ele>7</ele>
        <time>2016-07-22T06:49:46Z</time>
      </trkpt>
      <trkpt lat="47.27815" lon="-2.20309">
        <ele>6</ele>
        <time>2016-07-22T06:49:49Z</time>
      </trkpt>
      <trkpt lat="47.2778" lon="-2.20319">
        <ele>9</ele>
        <time>2016-07-22T06:49:57Z</time>
      </trkpt>
      <trkpt lat="47.27776" lon="-2.2032">
        <ele>7</ele>
        <time>2016-07-22T06:49:59Z</time>
      </trkpt>
      <trkpt lat="47.27776" lon="-2.20319">
        <ele>7</ele>
        <time>2016-07-22T06:50:08Z</time>
      </trkpt>
      <trkpt lat="47.27775" lon="-2.20319">
        <ele>7</ele>
        <time>2016-07-22T06:50:09Z</time>
      </trkpt>
      <trkpt lat="47.27777" lon="-2.20316">
        <ele>6</ele>
        <time>2016-07-22T06:50:14Z</time>
      </trkpt>
      <trkpt lat="47.27781" lon="-2.20317">
        <ele>7</ele>
        <time>2016-07-22T06:50:21Z</time>
      </trkpt>
      <trkpt lat="47.27779" lon="-2.20315">
        <ele>6</ele>
        <time>2016-07-22T06:50:27Z</time>
      </trkpt>
      <trkpt lat="47.27778" lon="-2.20319">
        <ele>6</ele>
        <time>2016-07-22T06:50:29Z</time>
      </trkpt>
      <trkpt lat="47.27775" lon="-2.20322">
        <ele>6</ele>
        <time>2016-07-22T06:50:38Z</time>
      </trkpt>
      <trkpt lat="47.27775" lon="-2.20321">
        <ele>6</ele>
        <time>2016-07-22T06:50:39Z</time>
      </trkpt>
      <trkpt lat="47.27773" lon="-2.20321">
        <ele>5</ele>
        <time>2016-07-22T06:50:44Z</time>
      </trkpt>
      <trkpt lat="47.27771" lon="-2.20321">
        <ele>6</ele>
        <time>2016-07-22T06:50:52Z</time>
      </trkpt>
      <trkpt lat="47.27771" lon="-2.20324">
        <ele>7</ele>
        <time>2016-07-22T06:50:54Z</time>
      </trkpt>
      <trkpt lat="47.27752" lon="-2.2034">
        <ele>6</ele>
        <time>2016-07-22T06:51:03Z</time>
      </trkpt>
      <trkpt lat="47.27749" lon="-2.20339">
        <ele>6</ele>
        <time>2016-07-22T06:51:04Z</time>
      </trkpt>
      <trkpt lat="47.27741" lon="-2.20333">
        <ele>5</ele>
        <time>2016-07-22T06:51:09Z</time>
      </trkpt>
      <trkpt lat="47.2774" lon="-2.20332">
        <ele>4</ele>
        <time>2016-07-22T06:51:14Z</time>
      </trkpt>
      <trkpt lat="47.27738" lon="-2.2033">
        <ele>4</ele>
        <time>2016-07-22T06:51:19Z</time>
      </trkpt>
      <trkpt lat="47.27723" lon="-2.20335">
        <ele>8</ele>
        <time>2016-07-22T06:51:25Z</time>
      </trkpt>
      <trkpt lat="47.27704" lon="-2.2034">
        <ele>9</ele>
        <time>2016-07-22T06:51:29Z</time>
      </trkpt>
      <trkpt lat="47.27675" lon="-2.20346">
        <ele>7</ele>
        <time>2016-07-22T06:51:35Z</time>
      </trkpt>
      <trkpt lat="47.27635" lon="-2.20356">
        <ele>7</ele>
        <time>2016-07-22T06:51:43Z</time>
      </trkpt>
      <trkpt lat="47.27627" lon="-2.2036">
        <ele>7</ele>
        <time>2016-07-22T06:51:45Z</time>
      </trkpt>
      <trkpt lat="47.2761" lon="-2.20364">
        <ele>7</ele>
        <time>2016-07-22T06:51:49Z</time>
      </trkpt>
      <trkpt lat="47.2757" lon="-2.20378">
        <ele>7</ele>
        <time>2016-07-22T06:51:58Z</time>
      </trkpt>
      <trkpt lat="47.27555" lon="-2.20382">
        <ele>6</ele>
        <time>2016-07-22T06:52:01Z</time>
      </trkpt>
      <trkpt lat="47.2754" lon="-2.20385">
        <ele>5</ele>
        <time>2016-07-22T06:52:04Z</time>
      </trkpt>
      <trkpt lat="47.27516" lon="-2.20391">
        <ele>5</ele>
        <time>2016-07-22T06:52:09Z</time>
      </trkpt>
      <trkpt lat="47.27486" lon="-2.20402">
        <ele>8</ele>
        <time>2016-07-22T06:52:15Z</time>
      </trkpt>
      <trkpt lat="47.27449" lon="-2.20413">
        <ele>10</ele>
        <time>2016-07-22T06:52:23Z</time>
      </trkpt>
      <trkpt lat="47.27438" lon="-2.20416">
        <ele>9</ele>
        <time>2016-07-22T06:52:25Z</time>
      </trkpt>
      <trkpt lat="47.2742" lon="-2.20421">
        <ele>10</ele>
        <time>2016-07-22T06:52:29Z</time>
      </trkpt>
      <trkpt lat="47.27399" lon="-2.20429">
        <ele>10</ele>
        <time>2016-07-22T06:52:34Z</time>
      </trkpt>
      <trkpt lat="47.27379" lon="-2.20434">
        <ele>12</ele>
        <time>2016-07-22T06:52:39Z</time>
      </trkpt>
      <trkpt lat="47.2736" lon="-2.20437">
        <ele>12</ele>
        <time>2016-07-22T06:52:44Z</time>
      </trkpt>
      <trkpt lat="47.27335" lon="-2.20445">
        <ele>10</ele>
        <time>2016-07-22T06:52:52Z</time>
      </trkpt>
      <trkpt lat="47.27331" lon="-2.20449">
        <ele>15</ele>
        <time>2016-07-22T06:52:55Z</time>
      </trkpt>
      <trkpt lat="47.27304" lon="-2.20452">
        <ele>23</ele>
        <time>2016-07-22T06:53:03Z</time>
      </trkpt>
      <trkpt lat="47.273" lon="-2.20453">
        <ele>21</ele>
        <time>2016-07-22T06:53:04Z</time>
      </trkpt>
      <trkpt lat="47.27269" lon="-2.20463">
        <ele>20</ele>
        <time>2016-07-22T06:53:12Z</time>
      </trkpt>
      <trkpt lat="47.2726" lon="-2.20464">
        <ele>21</ele>
        <time>2016-07-22T06:53:14Z</time>
      </trkpt>
      <trkpt lat="47.27237" lon="-2.20468">
        <ele>20</ele>
        <time>2016-07-22T06:53:20Z</time>
      </trkpt>
      <trkpt lat="47.27216" lon="-2.20474">
        <ele>18</ele>
        <time>2016-07-22T06:53:28Z</time>
      </trkpt>
      <trkpt lat="47.27204" lon="-2.20476">
        <ele>17</ele>
        <time>2016-07-22T06:53:32Z</time>
      </trkpt>
      <trkpt lat="47.27197" lon="-2.20475">
        <ele>15</ele>
        <time>2016-07-22T06:53:34Z</time>
      </trkpt>
      <trkpt lat="47.27181" lon="-2.20476">
        <ele>13</ele>
        <time>2016-07-22T06:53:39Z</time>
      </trkpt>
      <trkpt lat="47.27167" lon="-2.20477">
        <ele>11</ele>
        <time>2016-07-22T06:53:44Z</time>
      </trkpt>
      <trkpt lat="47.27159" lon="-2.20477">
        <ele>10</ele>
        <time>2016-07-22T06:53:49Z</time>
      </trkpt>
      <trkpt lat="47.27155" lon="-2.20477">
        <ele>5</ele>
        <time>2016-07-22T06:53:54Z</time>
      </trkpt>
    </trkseg>
  </trk>
</gpx>